createdAt,value
2018-02-10T00:01:48.279Z,108.60
2018-02-10T00:04:22.795Z,108.70
2018-02-10T00:06:57.207Z,122.95
2018-02-10T00:09:31.678Z,108.70
2018-02-10T00:12:06.075Z,106.85
2018-02-10T00:14:40.464Z,104.45
2018-02-10T00:17:14.939Z,107.45
2018-02-10T00:19:49.577Z,100.35
2018-02-10T00:22:34.852Z,98.32
2018-02-10T00:25:09.242Z,111.68
2018-02-10T00:27:43.903Z,109.03
2018-02-10T00:30:18.479Z,107.75
2018-02-10T00:32:53.906Z,101.62
2018-02-10T00:35:28.959Z,93.53
2018-02-10T00:38:03.359Z,100.22
2018-02-10T00:40:37.851Z,111.72
2018-02-10T00:43:12.246Z,104.38
2018-02-10T00:45:46.799Z,102.85
2018-02-10T00:48:21.220Z,113.00
2018-02-10T00:50:55.793Z,102.80
2018-02-10T00:53:30.305Z,116.80
2018-02-10T00:56:04.892Z,102.25
2018-02-10T00:58:39.416Z,102.03
2018-02-10T01:01:13.929Z,109.12
2018-02-10T01:03:49.173Z,102.97
2018-02-10T01:06:23.520Z,114.10
2018-02-10T01:08:58.079Z,103.30
2018-02-10T01:11:33.794Z,103.38
2018-02-10T01:14:08.304Z,101.47
2018-02-10T01:16:42.793Z,83.35
2018-02-10T01:19:17.408Z,112.65
2018-02-10T01:21:51.867Z,103.75
2018-02-10T01:24:26.443Z,100.70
2018-02-10T01:27:01.000Z,102.97
2018-02-10T01:29:35.624Z,109.12
2018-02-10T01:32:10.008Z,109.18
2018-02-10T01:34:44.446Z,105.80
2018-02-10T01:37:19.036Z,103.07
2018-02-10T01:39:53.436Z,111.00
2018-02-10T01:42:27.966Z,108.20
2018-02-10T01:45:02.554Z,107.32
2018-02-10T01:47:37.011Z,115.90
2018-02-10T01:50:21.528Z,110.47
2018-02-10T01:52:56.223Z,105.70
2018-02-10T01:55:30.832Z,111.12
2018-02-10T01:58:06.042Z,104.05
2018-02-10T02:00:40.644Z,106.93
2018-02-10T02:03:15.108Z,112.05
2018-02-10T02:05:49.445Z,99.80
2018-02-10T02:08:23.935Z,99.15
2018-02-10T02:10:59.248Z,91.03
2018-02-10T02:13:33.767Z,94.80
2018-02-10T02:16:08.346Z,111.62
2018-02-10T02:18:42.731Z,102.38
2018-02-10T02:21:18.083Z,93.95
2018-02-10T02:23:52.588Z,95.10
2018-02-10T02:26:27.190Z,90.10
2018-02-10T02:29:01.705Z,103.07
2018-02-10T02:31:36.304Z,91.65
2018-02-10T02:34:10.780Z,104.65
2018-02-10T02:36:45.291Z,111.43
2018-02-10T02:39:19.672Z,103.18
2018-02-10T02:41:54.065Z,114.10
2018-02-10T02:44:28.664Z,94.70
2018-02-10T02:47:03.283Z,110.93
2018-02-10T02:49:38.321Z,103.87
2018-02-10T02:52:12.828Z,100.68
2018-02-10T02:54:47.417Z,102.32
2018-02-10T02:57:21.856Z,97.70
2018-02-10T02:59:56.227Z,105.43
2018-02-10T03:02:30.737Z,100.65
2018-02-10T03:05:05.179Z,109.10
2018-02-10T03:07:39.703Z,102.00
2018-02-10T03:10:14.267Z,108.60
2018-02-10T03:12:48.892Z,107.68
2018-02-10T03:15:23.417Z,113.57
2018-02-10T03:17:57.862Z,113.70
2018-02-10T03:20:32.504Z,106.97
2018-02-10T03:23:06.969Z,107.28
2018-02-10T03:25:41.560Z,106.70
2018-02-10T03:28:16.133Z,115.37
2018-02-10T03:30:50.682Z,114.15
2018-02-10T03:33:25.055Z,113.37
2018-02-10T03:35:59.483Z,112.32
2018-02-10T03:38:34.017Z,106.43
2018-02-10T03:41:08.565Z,102.15
2018-02-10T03:43:43.245Z,98.93
2018-02-10T03:46:18.511Z,109.57
2018-02-10T03:48:53.060Z,99.13
2018-02-10T03:51:27.575Z,91.37
2018-02-10T03:54:01.951Z,94.60
2018-02-10T03:56:36.507Z,105.40
2018-02-10T03:59:11.168Z,100.07
2018-02-10T04:01:45.809Z,105.97
2018-02-10T04:04:20.262Z,99.43
2018-02-10T04:06:55.568Z,103.53
2018-02-10T04:09:30.083Z,93.30
2018-02-10T04:12:06.059Z,97.93
2018-02-10T04:14:41.340Z,102.35
2018-02-10T04:17:15.719Z,108.35
2018-02-10T04:19:50.110Z,114.88
2018-02-10T04:22:24.543Z,101.60
2018-02-10T04:24:59.095Z,100.62
2018-02-10T04:27:34.323Z,120.45
2018-02-10T04:30:08.889Z,118.18
2018-02-10T04:32:43.460Z,104.10
2018-02-10T04:35:17.876Z,93.30
2018-02-10T04:37:52.323Z,108.63
2018-02-10T04:40:26.694Z,102.97
2018-02-10T04:43:01.300Z,111.30
2018-02-10T04:45:35.907Z,104.93
2018-02-10T04:48:10.509Z,98.12
2018-02-10T04:50:45.624Z,88.97
2018-02-10T04:53:20.058Z,97.75
2018-02-10T04:55:54.632Z,96.25
2018-02-10T04:58:29.011Z,93.55
2018-02-10T05:01:03.445Z,101.20
2018-02-10T05:03:38.731Z,108.63
2018-02-10T05:06:13.110Z,104.90
2018-02-10T05:08:47.571Z,122.32
2018-02-10T05:11:21.951Z,104.25
2018-02-10T05:13:56.483Z,103.90
2018-02-10T05:16:31.101Z,94.90
2018-02-10T05:19:06.450Z,104.10
2018-02-10T05:21:40.991Z,103.55
2018-02-10T05:24:15.373Z,89.05
2018-02-10T05:26:49.859Z,103.57
2018-02-10T05:29:24.438Z,100.05
2018-02-10T05:31:58.876Z,101.30
2018-02-10T05:34:34.380Z,92.25
2018-02-10T05:37:08.787Z,118.57
2018-02-10T05:39:44.087Z,91.75
2018-02-10T05:42:18.493Z,101.07
2018-02-10T05:44:52.989Z,101.28
2018-02-10T05:47:27.588Z,112.80
2018-02-10T05:50:02.073Z,102.10
2018-02-10T05:52:36.698Z,98.10
2018-02-10T05:55:11.288Z,91.85
2018-02-10T05:57:45.831Z,99.15
2018-02-10T06:00:20.344Z,103.05
2018-02-10T06:02:54.933Z,88.47
2018-02-10T06:05:29.443Z,95.50
2018-02-10T06:08:03.869Z,105.18
2018-02-10T06:10:38.456Z,99.53
2018-02-10T06:13:13.089Z,100.43
2018-02-10T06:15:47.491Z,105.85
2018-02-10T06:18:22.095Z,110.25
2018-02-10T06:20:56.465Z,100.22
2018-02-10T06:23:30.867Z,88.28
2018-02-10T06:26:05.445Z,124.00
2018-02-10T06:28:39.937Z,93.50
2018-02-10T06:31:14.277Z,94.85
2018-02-10T06:33:48.797Z,90.15
2018-02-10T06:36:23.205Z,88.53
2018-02-10T06:38:57.625Z,102.10
2018-02-10T06:41:32.262Z,98.03
2018-02-10T06:44:07.599Z,103.87
2018-02-10T06:46:41.994Z,93.90
2018-02-10T06:49:16.433Z,93.78
2018-02-10T06:51:51.736Z,109.40
2018-02-10T06:54:26.158Z,98.90
2018-02-10T06:57:00.720Z,96.43
2018-02-10T06:59:35.236Z,105.18
2018-02-10T07:02:09.604Z,86.07
2018-02-10T07:04:44.139Z,114.65
2018-02-10T07:07:18.688Z,106.15
2018-02-10T07:09:53.099Z,90.60
2018-02-10T07:12:27.523Z,99.60
2018-02-10T07:15:01.927Z,107.47
2018-02-10T07:17:36.480Z,90.53
2018-02-10T07:20:11.101Z,92.30
2018-02-10T07:22:45.463Z,110.43
2018-02-10T07:25:19.817Z,105.18
2018-02-10T07:27:54.163Z,101.68
2018-02-10T07:30:28.716Z,97.93
2018-02-10T07:33:03.212Z,102.70
2018-02-10T07:35:37.616Z,91.55
2018-02-10T07:38:12.126Z,101.15
2018-02-10T07:40:46.552Z,107.72
2018-02-10T07:43:20.936Z,95.60
2018-02-10T07:45:56.231Z,100.80
2018-02-10T07:48:30.801Z,99.80
2018-02-10T07:51:05.325Z,106.35
2018-02-10T07:53:39.751Z,83.68
2018-02-10T07:56:14.129Z,93.65
2018-02-10T07:58:48.660Z,112.93
2018-02-10T08:01:24.644Z,100.07
2018-02-10T08:03:59.027Z,88.50
2018-02-10T08:06:33.492Z,114.60
2018-02-10T08:09:08.020Z,106.03
2018-02-10T08:11:42.508Z,108.95
2018-02-10T08:14:16.951Z,86.37
2018-02-10T08:16:52.215Z,107.53
2018-02-10T08:19:26.854Z,90.10
2018-02-10T08:22:01.391Z,87.20
2018-02-10T08:24:36.776Z,105.28
2018-02-10T08:27:11.230Z,104.20
2018-02-10T08:29:46.006Z,108.00
2018-02-10T08:32:21.191Z,90.97
2018-02-10T08:34:55.530Z,96.85
2018-02-10T08:37:30.130Z,98.28
2018-02-10T08:40:05.429Z,89.90
2018-02-10T08:42:39.935Z,93.60
2018-02-10T08:45:14.272Z,90.18
2018-02-10T08:47:48.630Z,98.10
2018-02-10T08:50:23.270Z,92.07
2018-02-10T08:52:57.761Z,88.45
2018-02-10T08:55:32.305Z,83.55
2018-02-10T08:58:06.931Z,100.60
2018-02-10T09:00:41.397Z,90.78
2018-02-10T09:03:16.004Z,93.95
2018-02-10T09:05:50.390Z,96.57
2018-02-10T09:08:24.824Z,90.80
2018-02-10T09:10:59.426Z,86.97
2018-02-10T09:13:34.072Z,86.63
2018-02-10T09:16:08.616Z,73.43
2018-02-10T09:18:43.233Z,100.25
2018-02-10T09:21:17.635Z,90.18
2018-02-10T09:23:52.212Z,90.70
2018-02-10T09:26:26.792Z,93.50
2018-02-10T09:29:01.338Z,88.25
2018-02-10T09:31:35.697Z,86.55
2018-02-10T09:34:10.110Z,101.53
2018-02-10T09:36:44.511Z,67.25
2018-02-10T09:39:18.894Z,82.30
2018-02-10T09:41:53.383Z,94.72
2018-02-10T09:44:27.907Z,90.53
2018-02-10T09:47:02.436Z,90.72
2018-02-10T09:49:37.827Z,95.85
2018-02-10T09:52:12.231Z,81.20
2018-02-10T09:54:48.559Z,78.93
2018-02-10T09:57:23.068Z,82.95
2018-02-10T09:59:57.600Z,89.80
2018-02-10T10:02:32.163Z,82.78
2018-02-10T10:05:06.526Z,85.60
2018-02-10T10:07:41.142Z,94.93
2018-02-10T10:10:15.672Z,96.45
2018-02-10T10:12:50.234Z,85.53
2018-02-10T10:15:26.316Z,79.50
2018-02-10T10:18:02.399Z,80.43
2018-02-10T10:20:36.908Z,85.65
2018-02-10T10:23:11.508Z,85.05
2018-02-10T10:25:46.087Z,85.05
2018-02-10T10:28:20.570Z,79.15
2018-02-10T10:30:55.133Z,83.65
2018-02-10T10:33:29.540Z,79.65
2018-02-10T10:36:04.028Z,85.75
2018-02-10T10:38:38.508Z,80.85
2018-02-10T10:41:13.139Z,74.85
2018-02-10T10:43:47.665Z,80.25
2018-02-10T10:46:22.077Z,69.75
2018-02-10T10:48:56.596Z,88.30
2018-02-10T10:51:31.943Z,80.28
2018-02-10T10:54:06.453Z,78.62
2018-02-10T10:56:40.940Z,83.30
2018-02-10T10:59:15.488Z,80.05
2018-02-10T11:01:49.954Z,81.00
2018-02-10T11:04:24.445Z,77.30
2018-02-10T11:06:58.925Z,63.95
2018-02-10T11:09:33.287Z,73.87
2018-02-10T11:12:07.663Z,78.35
2018-02-10T11:14:42.256Z,78.12
2018-02-10T11:17:16.835Z,63.40
2018-02-10T11:19:51.196Z,57.20
2018-02-10T11:22:25.556Z,70.55
2018-02-10T11:25:00.811Z,59.60
2018-02-10T11:27:35.251Z,71.53
2018-02-10T11:30:09.670Z,85.12
2018-02-10T11:32:44.128Z,57.20
2018-02-10T11:35:18.504Z,94.62
2018-02-10T11:37:52.934Z,82.35
2018-02-10T11:40:27.567Z,90.30
2018-02-10T11:43:02.065Z,80.28
2018-02-10T11:45:37.181Z,80.43
2018-02-10T11:48:11.659Z,89.50
2018-02-10T11:50:46.247Z,85.95
2018-02-10T11:53:20.657Z,67.18
2018-02-10T11:55:55.248Z,77.93
2018-02-10T11:58:30.344Z,76.70
2018-02-10T12:01:04.872Z,68.18
2018-02-10T12:03:39.346Z,74.50
2018-02-10T12:06:13.850Z,78.35
2018-02-10T12:08:48.478Z,71.28
2018-02-10T12:11:23.008Z,52.90
2018-02-10T12:13:57.589Z,74.18
2018-02-10T12:16:32.152Z,82.68
2018-02-10T12:19:06.662Z,77.57
2018-02-10T12:21:41.203Z,32.78
2018-02-10T12:24:15.823Z,58.20
2018-02-10T12:26:50.390Z,75.30
2018-02-10T12:29:24.910Z,78.22
2018-02-10T12:32:00.291Z,79.75
2018-02-10T12:34:34.733Z,60.70
2018-02-10T12:37:09.042Z,82.93
2018-02-10T12:39:43.403Z,81.47
2018-02-10T12:42:18.816Z,71.82
2018-02-10T12:44:54.149Z,44.92
2018-02-10T12:47:29.345Z,54.72
2018-02-10T12:50:03.811Z,75.53
2018-02-10T12:52:38.968Z,73.00
2018-02-10T12:55:14.263Z,54.70
2018-02-10T12:57:48.789Z,66.65
2018-02-10T13:00:24.059Z,58.72
2018-02-10T13:02:58.499Z,71.65
2018-02-10T13:05:33.095Z,40.15
2018-02-10T13:08:07.519Z,62.92
2018-02-10T13:10:42.107Z,74.32
2018-02-10T13:13:16.514Z,56.88
2018-02-10T13:15:50.976Z,67.30
2018-02-10T13:18:25.587Z,46.67
2018-02-10T13:21:00.196Z,82.45
2018-02-10T13:23:34.720Z,78.45
2018-02-10T13:26:09.251Z,30.08
2018-02-10T13:28:43.776Z,76.20
2018-02-10T13:31:19.024Z,69.05
2018-02-10T13:33:53.598Z,70.85
2018-02-10T13:36:28.851Z,73.05
2018-02-10T13:39:04.140Z,64.47
2018-02-10T13:41:38.618Z,69.82
2018-02-10T13:44:13.206Z,77.87
2018-02-10T13:46:47.665Z,64.65
2018-02-10T13:49:22.137Z,68.15
2018-02-10T13:51:56.495Z,67.28
2018-02-10T13:54:30.953Z,69.15
2018-02-10T13:57:05.408Z,64.53
2018-02-10T13:59:39.947Z,65.95
2018-02-10T14:02:14.421Z,68.57
2018-02-10T14:04:48.943Z,69.60
2018-02-10T14:07:24.163Z,70.07
2018-02-10T14:09:58.669Z,67.60
2018-02-10T14:12:33.812Z,70.15
2018-02-10T14:15:08.152Z,61.40
2018-02-10T14:17:42.654Z,58.92
2018-02-10T14:20:17.177Z,61.33
2018-02-10T14:22:51.848Z,65.62
2018-02-10T14:25:26.932Z,71.62
2018-02-10T14:28:01.303Z,67.85
2018-02-10T14:30:35.802Z,74.78
2018-02-10T14:33:10.238Z,64.62
2018-02-10T14:35:44.861Z,68.25
2018-02-10T14:38:20.852Z,56.58
2018-02-10T14:40:55.425Z,64.53
2018-02-10T14:43:30.711Z,67.97
2018-02-10T14:46:06.024Z,58.90
2018-02-10T14:48:40.545Z,54.38
2018-02-10T14:51:15.037Z,58.67
2018-02-10T14:53:49.434Z,48.92
2018-02-10T14:56:24.669Z,67.30
2018-02-10T14:58:59.052Z,69.53
2018-02-10T15:01:33.544Z,63.97
2018-02-10T15:04:08.132Z,59.75
2018-02-10T15:06:42.713Z,58.33
2018-02-10T15:09:17.104Z,63.60
2018-02-10T15:11:51.684Z,61.30
2018-02-10T15:14:26.163Z,61.25
2018-02-10T15:17:00.680Z,61.28
2018-02-10T15:19:35.188Z,67.30
2018-02-10T15:22:09.650Z,57.90
2018-02-10T15:24:44.073Z,65.87
2018-02-10T15:27:19.290Z,62.70
2018-02-10T15:30:05.794Z,61.72
2018-02-10T15:32:52.135Z,67.12
2018-02-10T15:35:26.690Z,64.35
2018-02-10T15:38:01.161Z,60.55
2018-02-10T15:40:35.697Z,68.37
2018-02-10T15:43:10.005Z,65.03
2018-02-10T15:45:44.497Z,68.80
2018-02-10T15:48:19.039Z,56.17
2018-02-10T15:50:53.427Z,50.22
2018-02-10T15:53:27.992Z,53.13
2018-02-10T15:56:02.471Z,58.95
2018-02-10T15:58:36.973Z,59.72
2018-02-10T16:01:11.455Z,57.50
2018-02-10T16:03:45.952Z,63.55
2018-02-10T16:06:20.327Z,52.80
2018-02-10T16:08:54.967Z,52.38
2018-02-10T16:11:29.498Z,58.03
2018-02-10T16:14:04.000Z,58.15
2018-02-10T16:16:39.184Z,57.20
2018-02-10T16:19:14.278Z,47.92
2018-02-10T16:21:48.909Z,49.03
2018-02-10T16:24:23.524Z,45.53
2018-02-10T16:26:58.060Z,54.90
2018-02-10T16:29:32.664Z,54.80
2018-02-10T16:32:07.807Z,52.50
2018-02-10T16:34:42.284Z,48.63
2018-02-10T16:37:17.076Z,54.50
2018-02-10T16:39:51.456Z,49.58
2018-02-10T16:42:25.989Z,46.33
2018-02-10T16:45:00.519Z,51.05
2018-02-10T16:47:35.072Z,44.97
2018-02-10T16:50:09.546Z,40.38
2018-02-10T16:52:44.024Z,37.83
2018-02-10T16:55:19.180Z,40.22
2018-02-10T16:57:53.707Z,50.60
2018-02-10T17:00:28.283Z,54.45
2018-02-10T17:03:02.783Z,44.20
2018-02-10T17:05:37.310Z,35.13
2018-02-10T17:08:12.409Z,36.30
2018-02-10T17:10:47.588Z,39.15
2018-02-10T17:13:22.088Z,35.00
2018-02-10T17:15:56.636Z,38.53
2018-02-10T17:18:31.002Z,31.35
2018-02-10T17:21:05.769Z,42.60
2018-02-10T17:23:40.171Z,35.83
2018-02-10T17:26:14.676Z,37.05
2018-02-10T17:28:49.960Z,34.40
2018-02-10T17:31:24.363Z,38.63
2018-02-10T17:33:59.596Z,36.70
2018-02-10T17:36:34.389Z,37.58
2018-02-10T17:39:08.938Z,42.00
2018-02-10T17:41:43.523Z,44.45
2018-02-10T17:44:18.065Z,42.35
2018-02-10T17:46:52.557Z,36.47
2018-02-10T17:49:27.023Z,34.60
2018-02-10T17:52:01.587Z,48.58
2018-02-10T17:54:36.149Z,40.67
2018-02-10T17:57:10.500Z,44.92
2018-02-10T17:59:44.906Z,43.90
2018-02-10T18:02:19.347Z,44.20
2018-02-10T18:04:53.881Z,47.95
2018-02-10T18:07:28.383Z,53.97
2018-02-10T18:10:03.603Z,54.13
2018-02-10T18:12:38.921Z,44.20
2018-02-10T18:15:13.306Z,49.55
2018-02-10T18:17:47.847Z,64.07
2018-02-10T18:20:22.413Z,62.08
2018-02-10T18:22:56.959Z,60.08
2018-02-10T18:25:31.381Z,61.42
2018-02-10T18:28:05.760Z,63.87
2018-02-10T18:30:40.993Z,66.72
2018-02-10T18:33:15.480Z,63.05
2018-02-10T18:35:50.036Z,59.92
2018-02-10T18:38:24.569Z,61.60
2018-02-10T18:40:59.052Z,58.72
2018-02-10T18:43:33.556Z,66.22
2018-02-10T18:46:08.075Z,57.60
2018-02-10T18:48:43.360Z,65.25
2018-02-10T18:51:17.836Z,59.55
2018-02-10T18:53:52.328Z,52.70
2018-02-10T18:56:26.881Z,58.47
2018-02-10T18:59:01.656Z,56.10
2018-02-10T19:01:35.988Z,57.67
2018-02-10T19:04:10.547Z,59.60
2018-02-10T19:06:45.217Z,54.95
2018-02-10T19:09:19.856Z,58.05
2018-02-10T19:11:54.217Z,56.13
2018-02-10T19:14:28.701Z,71.62
2018-02-10T19:17:03.189Z,62.80
2018-02-10T19:19:37.651Z,59.97
2018-02-10T19:22:12.213Z,58.80
2018-02-10T19:24:46.671Z,64.97
2018-02-10T19:27:21.267Z,59.83
2018-02-10T19:29:55.671Z,63.63
2018-02-10T19:32:30.272Z,66.12
2018-02-10T19:35:04.606Z,76.45
2018-02-10T19:37:38.959Z,61.20
2018-02-10T19:40:14.305Z,43.45
2018-02-10T19:42:48.877Z,61.45
2018-02-10T19:45:23.320Z,53.78
2018-02-10T19:47:57.848Z,62.35
2018-02-10T19:50:32.524Z,58.60
2018-02-10T19:53:06.982Z,52.40
2018-02-10T19:55:41.444Z,64.62
2018-02-10T19:58:15.816Z,57.67
2018-02-10T20:00:51.217Z,75.18
2018-02-10T20:03:25.684Z,61.88
2018-02-10T20:06:00.254Z,58.87
2018-02-10T20:08:34.721Z,64.32
2018-02-10T20:11:09.269Z,54.15
2018-02-10T20:13:43.824Z,60.88
2018-02-10T20:16:19.059Z,56.03
2018-02-10T20:18:53.586Z,56.25
2018-02-10T20:21:28.177Z,50.17
2018-02-10T20:24:02.627Z,51.13
2018-02-10T20:26:37.116Z,61.20
2018-02-10T20:29:11.587Z,53.95
2018-02-10T20:31:46.118Z,53.75
2018-02-10T20:34:20.501Z,54.47
2018-02-10T20:36:55.028Z,58.20
2018-02-10T20:39:29.486Z,54.42
2018-02-10T20:42:04.106Z,50.60
2018-02-10T20:44:38.543Z,65.85
2018-02-10T20:47:13.037Z,53.75
2018-02-10T20:49:47.470Z,50.17
2018-02-10T20:52:26.809Z,47.03
2018-02-10T20:55:01.248Z,53.40
2018-02-10T20:57:35.571Z,66.30
2018-02-10T21:00:10.081Z,48.53
2018-02-10T21:02:44.719Z,43.78
2018-02-10T21:05:19.317Z,50.00
2018-02-10T21:07:53.816Z,45.80
2018-02-10T21:10:28.312Z,53.70
2018-02-10T21:13:02.700Z,48.15
2018-02-10T21:15:37.310Z,51.88
2018-02-10T21:18:11.761Z,51.53
2018-02-10T21:20:47.028Z,43.22
2018-02-10T21:23:21.436Z,53.53
2018-02-10T21:25:55.969Z,51.83
2018-02-10T21:28:30.416Z,43.15
2018-02-10T21:31:04.984Z,55.55
2018-02-10T21:33:39.460Z,50.88
2018-02-10T21:36:14.062Z,46.33
2018-02-10T21:38:48.646Z,47.75
2018-02-10T21:41:23.991Z,41.13
2018-02-10T21:43:58.541Z,51.45
2018-02-10T21:46:33.104Z,51.47
2018-02-10T21:49:07.615Z,46.70
2018-02-10T21:51:42.125Z,48.42
2018-02-10T21:54:16.536Z,46.20
2018-02-10T21:56:51.804Z,53.53
2018-02-10T21:59:27.157Z,53.83
2018-02-10T22:02:01.817Z,54.20
2018-02-10T22:04:37.070Z,49.65
2018-02-10T22:07:11.590Z,57.88
2018-02-10T22:09:46.075Z,49.60
2018-02-10T22:12:20.562Z,47.20
2018-02-10T22:14:54.980Z,51.45
2018-02-10T22:17:30.216Z,65.82
2018-02-10T22:20:04.712Z,47.00
2018-02-10T22:22:40.066Z,58.20
2018-02-10T22:25:15.404Z,51.97
2018-02-10T22:27:50.231Z,49.88
2018-02-10T22:30:24.808Z,57.55
2018-02-10T22:32:59.300Z,54.00
2018-02-10T22:35:33.752Z,53.13
2018-02-10T22:38:08.268Z,54.20
2018-02-10T22:40:43.852Z,49.47
2018-02-10T22:43:18.481Z,56.60
2018-02-10T22:45:52.917Z,66.03
2018-02-10T22:48:27.906Z,51.97
2018-02-10T22:51:02.356Z,46.50
2018-02-10T22:53:36.799Z,62.72
2018-02-10T22:56:11.178Z,45.03
2018-02-10T22:58:45.625Z,52.85
2018-02-10T23:01:20.156Z,44.95
2018-02-10T23:03:54.703Z,51.63
2018-02-10T23:06:29.295Z,48.60
2018-02-10T23:09:03.716Z,52.13
2018-02-10T23:11:38.889Z,58.13
2018-02-10T23:14:13.387Z,50.20
2018-02-10T23:16:47.940Z,52.50
2018-02-10T23:19:22.285Z,57.25
2018-02-10T23:21:56.879Z,50.97
2018-02-10T23:24:31.335Z,46.55
2018-02-10T23:27:05.868Z,55.17
2018-02-10T23:29:40.387Z,42.55
2018-02-10T23:32:14.891Z,49.88
2018-02-10T23:34:49.418Z,38.00
2018-02-10T23:37:23.815Z,40.40
2018-02-10T23:39:58.434Z,56.97
2018-02-10T23:42:32.773Z,52.62
2018-02-10T23:45:07.195Z,52.38
2018-02-10T23:47:41.644Z,55.72
2018-02-10T23:50:16.971Z,57.33
2018-02-10T23:52:51.632Z,41.58
2018-02-10T23:55:26.283Z,47.30
2018-02-10T23:58:00.824Z,51.53
